sensor_id;sensor_type;location;lat;lon;timestamp;pressure;altitude;pressure_sealevel;temperature;humidity
59531;BME280;45349;48.692;8.186;2023-03-18T00:01:37;98230.50;;;11.06;52.99
59531;BME280;45349;48.692;8.186;2023-03-18T00:04:03;98231.81;;;10.94;54.06
59531;BME280;45349;48.692;8.186;2023-03-18T00:06:30;98229.50;;;10.83;54.72
59531;BME280;45349;48.692;8.186;2023-03-18T00:08:58;98231.66;;;10.96;53.27
59531;BME280;45349;48.692;8.186;2023-03-18T00:11:24;98233.94;;;10.90;53.93
59531;BME280;45349;48.692;8.186;2023-03-18T00:13:51;98237.19;;;10.76;55.89
59531;BME280;45349;48.692;8.186;2023-03-18T00:16:18;98252.00;;;10.59;56.36
59531;BME280;45349;48.692;8.186;2023-03-18T00:18:45;98245.13;;;10.41;56.73
59531;BME280;45349;48.692;8.186;2023-03-18T00:21:12;98246.50;;;10.27;55.36
59531;BME280;45349;48.692;8.186;2023-03-18T00:23:38;98245.16;;;10.15;56.00
59531;BME280;45349;48.692;8.186;2023-03-18T00:26:06;98247.56;;;10.08;55.94
59531;BME280;45349;48.692;8.186;2023-03-18T00:28:35;98257.69;;;10.11;54.95
59531;BME280;45349;48.692;8.186;2023-03-18T00:31:04;98246.78;;;10.75;49.42
59531;BME280;45349;48.692;8.186;2023-03-18T00:33:33;98254.94;;;10.72;50.07
59531;BME280;45349;48.692;8.186;2023-03-18T00:36:00;98259.84;;;10.75;51.72
59531;BME280;45349;48.692;8.186;2023-03-18T00:38:27;98254.16;;;10.72;51.88
59531;BME280;45349;48.692;8.186;2023-03-18T00:40:54;98254.28;;;10.62;50.83
59531;BME280;45349;48.692;8.186;2023-03-18T00:43:30;98250.69;;;10.55;51.52
59531;BME280;45349;48.692;8.186;2023-03-18T00:46:01;98265.63;;;10.36;53.40
59531;BME280;45349;48.692;8.186;2023-03-18T00:48:28;98262.97;;;10.28;54.86
59531;BME280;45349;48.692;8.186;2023-03-18T00:50:55;98262.78;;;10.21;52.06
59531;BME280;45349;48.692;8.186;2023-03-18T00:53:22;98253.00;;;10.23;52.20
59531;BME280;45349;48.692;8.186;2023-03-18T00:55:50;98248.78;;;10.30;52.20
59531;BME280;45349;48.692;8.186;2023-03-18T00:58:17;98248.53;;;10.42;51.10
59531;BME280;45349;48.692;8.186;2023-03-18T01:00:46;98252.63;;;10.44;51.56
59531;BME280;45349;48.692;8.186;2023-03-18T01:03:13;98254.34;;;10.36;52.87
59531;BME280;45349;48.692;8.186;2023-03-18T01:05:39;98257.53;;;10.64;51.27
59531;BME280;45349;48.692;8.186;2023-03-18T01:08:08;98255.59;;;10.66;49.79
59531;BME280;45349;48.692;8.186;2023-03-18T01:10:34;98265.22;;;10.66;51.95
59531;BME280;45349;48.692;8.186;2023-03-18T01:13:01;98260.31;;;10.62;50.86
59531;BME280;45349;48.692;8.186;2023-03-18T01:15:28;98266.84;;;10.58;51.68
59531;BME280;45349;48.692;8.186;2023-03-18T01:17:56;98267.00;;;10.48;53.25
59531;BME280;45349;48.692;8.186;2023-03-18T01:20:24;98276.72;;;10.38;52.72
59531;BME280;45349;48.692;8.186;2023-03-18T01:22:53;98255.56;;;10.41;52.44
59531;BME280;45349;48.692;8.186;2023-03-18T01:25:21;98263.38;;;10.41;52.15
59531;BME280;45349;48.692;8.186;2023-03-18T01:27:52;98258.50;;;10.46;51.46
59531;BME280;45349;48.692;8.186;2023-03-18T01:30:20;98260.13;;;10.47;52.40
59531;BME280;45349;48.692;8.186;2023-03-18T01:32:51;98259.09;;;10.32;54.13
59531;BME280;45349;48.692;8.186;2023-03-18T01:35:20;98257.38;;;10.14;54.60
59531;BME280;45349;48.692;8.186;2023-03-18T01:37:48;98254.25;;;10.02;55.41
59531;BME280;45349;48.692;8.186;2023-03-18T01:40:16;98250.97;;;10.00;54.08
59531;BME280;45349;48.692;8.186;2023-03-18T01:42:47;98252.78;;;10.08;54.02
59531;BME280;45349;48.692;8.186;2023-03-18T01:45:21;98251.03;;;10.17;53.50
59531;BME280;45349;48.692;8.186;2023-03-18T01:47:53;98245.13;;;10.41;51.23
59531;BME280;45349;48.692;8.186;2023-03-18T01:50:25;98248.69;;;10.40;53.26
59531;BME280;45349;48.692;8.186;2023-03-18T01:52:55;98251.13;;;10.42;52.83
59531;BME280;45349;48.692;8.186;2023-03-18T01:55:25;98240.13;;;10.22;55.26
59531;BME280;45349;48.692;8.186;2023-03-18T01:57:53;98248.06;;;10.12;55.51
59531;BME280;45349;48.692;8.186;2023-03-18T02:00:20;98244.31;;;10.06;55.50
59531;BME280;45349;48.692;8.186;2023-03-18T02:02:51;98245.25;;;9.97;55.98
59531;BME280;45349;48.692;8.186;2023-03-18T02:05:20;98242.03;;;10.11;54.30
59531;BME280;45349;48.692;8.186;2023-03-18T02:07:51;98247.97;;;10.22;53.98
59531;BME280;45349;48.692;8.186;2023-03-18T02:10:20;98242.44;;;10.33;54.46
59531;BME280;45349;48.692;8.186;2023-03-18T02:12:59;98243.25;;;10.33;54.22
59531;BME280;45349;48.692;8.186;2023-03-18T02:15:34;98259.78;;;10.42;54.71
59531;BME280;45349;48.692;8.186;2023-03-18T02:18:06;98251.66;;;10.45;53.97
59531;BME280;45349;48.692;8.186;2023-03-18T02:20:41;98251.66;;;10.45;53.86
59531;BME280;45349;48.692;8.186;2023-03-18T02:23:25;98258.34;;;10.48;53.84
59531;BME280;45349;48.692;8.186;2023-03-18T02:25:58;98254.13;;;10.63;53.59
59531;BME280;45349;48.692;8.186;2023-03-18T02:28:30;98258.22;;;10.58;53.94
59531;BME280;45349;48.692;8.186;2023-03-18T02:31:01;98264.56;;;10.55;53.98
59531;BME280;45349;48.692;8.186;2023-03-18T02:33:32;98257.63;;;10.38;55.19
59531;BME280;45349;48.692;8.186;2023-03-18T02:36:06;98255.63;;;10.31;55.47
59531;BME280;45349;48.692;8.186;2023-03-18T02:38:40;98251.88;;;10.26;54.75
59531;BME280;45349;48.692;8.186;2023-03-18T02:41:13;98255.94;;;10.28;54.53
59531;BME280;45349;48.692;8.186;2023-03-18T02:43:42;98248.41;;;10.52;52.98
59531;BME280;45349;48.692;8.186;2023-03-18T02:46:22;98247.09;;;10.47;53.03
59531;BME280;45349;48.692;8.186;2023-03-18T02:48:52;98248.22;;;10.45;53.54
59531;BME280;45349;48.692;8.186;2023-03-18T02:51:19;98252.66;;;10.53;53.52
59531;BME280;45349;48.692;8.186;2023-03-18T02:53:47;98253.16;;;10.65;53.42
59531;BME280;45349;48.692;8.186;2023-03-18T02:56:14;98252.84;;;10.68;52.68
59531;BME280;45349;48.692;8.186;2023-03-18T02:58:44;98250.34;;;10.50;54.27
59531;BME280;45349;48.692;8.186;2023-03-18T03:01:12;98250.34;;;10.41;55.35
59531;BME280;45349;48.692;8.186;2023-03-18T03:03:39;98255.81;;;10.30;54.69
59531;BME280;45349;48.692;8.186;2023-03-18T03:06:08;98257.72;;;10.19;56.02
59531;BME280;45349;48.692;8.186;2023-03-18T03:08:36;98255.22;;;10.10;55.00
59531;BME280;45349;48.692;8.186;2023-03-18T03:11:04;98260.78;;;10.15;55.62
59531;BME280;45349;48.692;8.186;2023-03-18T03:13:34;98263.22;;;10.08;55.82
59531;BME280;45349;48.692;8.186;2023-03-18T03:16:03;98261.09;;;10.03;56.36
59531;BME280;45349;48.692;8.186;2023-03-18T03:18:31;98268.41;;;10.00;56.50
59531;BME280;45349;48.692;8.186;2023-03-18T03:20:57;98262.03;;;9.94;57.38
59531;BME280;45349;48.692;8.186;2023-03-18T03:23:24;98269.84;;;9.94;57.25
59531;BME280;45349;48.692;8.186;2023-03-18T03:25:51;98267.69;;;9.89;58.41
59531;BME280;45349;48.692;8.186;2023-03-18T03:28:19;98269.81;;;9.86;58.18
59531;BME280;45349;48.692;8.186;2023-03-18T03:30:46;98262.91;;;9.77;59.97
59531;BME280;45349;48.692;8.186;2023-03-18T03:33:15;98261.16;;;9.85;57.90
59531;BME280;45349;48.692;8.186;2023-03-18T03:35:42;98265.75;;;9.92;57.92
59531;BME280;45349;48.692;8.186;2023-03-18T03:38:09;98262.66;;;9.88;58.29
59531;BME280;45349;48.692;8.186;2023-03-18T03:40:36;98266.38;;;9.85;57.40
59531;BME280;45349;48.692;8.186;2023-03-18T03:43:03;98261.47;;;9.82;57.35
59531;BME280;45349;48.692;8.186;2023-03-18T03:45:30;98266.19;;;9.79;58.20
59531;BME280;45349;48.692;8.186;2023-03-18T03:47:58;98269.91;;;9.76;56.80
59531;BME280;45349;48.692;8.186;2023-03-18T03:50:26;98269.47;;;9.81;57.31
59531;BME280;45349;48.692;8.186;2023-03-18T03:52:53;98266.63;;;9.74;58.58
59531;BME280;45349;48.692;8.186;2023-03-18T03:55:21;98269.00;;;9.59;59.90
59531;BME280;45349;48.692;8.186;2023-03-18T03:57:52;98275.72;;;9.43;60.64
59531;BME280;45349;48.692;8.186;2023-03-18T04:00:21;98278.38;;;9.25;61.49
59531;BME280;45349;48.692;8.186;2023-03-18T04:02:51;98278.38;;;9.07;62.73
59531;BME280;45349;48.692;8.186;2023-03-18T04:05:21;98269.19;;;8.95;63.50
59531;BME280;45349;48.692;8.186;2023-03-18T04:07:53;98273.19;;;8.89;62.98
59531;BME280;45349;48.692;8.186;2023-03-18T04:10:31;98273.69;;;8.75;63.98
59531;BME280;45349;48.692;8.186;2023-03-18T04:13:00;98260.84;;;8.73;64.50
59531;BME280;45349;48.692;8.186;2023-03-18T04:15:26;98262.91;;;8.69;64.93
59531;BME280;45349;48.692;8.186;2023-03-18T04:17:54;98257.78;;;8.60;66.29
59531;BME280;45349;48.692;8.186;2023-03-18T04:20:22;98253.69;;;8.57;65.29
59531;BME280;45349;48.692;8.186;2023-03-18T04:22:50;98257.97;;;8.48;65.64
59531;BME280;45349;48.692;8.186;2023-03-18T04:25:20;98255.13;;;8.41;66.29
59531;BME280;45349;48.692;8.186;2023-03-18T04:27:51;98266.63;;;8.39;66.79
59531;BME280;45349;48.692;8.186;2023-03-18T04:33:00;98259.88;;;8.28;66.70
59531;BME280;45349;48.692;8.186;2023-03-18T04:35:29;98260.91;;;8.35;65.64
59531;BME280;45349;48.692;8.186;2023-03-18T04:37:56;98259.50;;;8.41;65.09
59531;BME280;45349;48.692;8.186;2023-03-18T04:40:24;98261.00;;;8.44;65.54
59531;BME280;45349;48.692;8.186;2023-03-18T04:42:51;98268.66;;;8.45;66.22
59531;BME280;45349;48.692;8.186;2023-03-18T04:45:22;98265.09;;;8.46;67.33
59531;BME280;45349;48.692;8.186;2023-03-18T04:47:55;98264.88;;;8.39;67.81
59531;BME280;45349;48.692;8.186;2023-03-18T04:50:23;98256.81;;;8.33;67.04
59531;BME280;45349;48.692;8.186;2023-03-18T04:52:52;98265.34;;;8.25;68.18
59531;BME280;45349;48.692;8.186;2023-03-18T04:55:24;98257.19;;;8.10;69.18
59531;BME280;45349;48.692;8.186;2023-03-18T04:57:51;98269.56;;;7.98;68.85
59531;BME280;45349;48.692;8.186;2023-03-18T05:00:21;98269.19;;;7.93;69.63
59531;BME280;45349;48.692;8.186;2023-03-18T05:02:59;98265.63;;;7.94;70.90
59531;BME280;45349;48.692;8.186;2023-03-18T05:05:26;98267.31;;;7.85;72.24
59531;BME280;45349;48.692;8.186;2023-03-18T05:07:53;98266.91;;;7.80;69.75
59531;BME280;45349;48.692;8.186;2023-03-18T05:10:20;98263.34;;;7.81;72.43
59531;BME280;45349;48.692;8.186;2023-03-18T05:12:51;98262.69;;;7.69;71.94
59531;BME280;45349;48.692;8.186;2023-03-18T05:15:26;98262.28;;;7.64;73.03
59531;BME280;45349;48.692;8.186;2023-03-18T05:17:55;98253.97;;;7.60;73.11
59531;BME280;45349;48.692;8.186;2023-03-18T05:20:22;98265.88;;;7.53;73.01
59531;BME280;45349;48.692;8.186;2023-03-18T05:22:51;98266.69;;;7.53;73.63
59531;BME280;45349;48.692;8.186;2023-03-18T05:25:29;98263.28;;;7.43;72.06
59531;BME280;45349;48.692;8.186;2023-03-18T05:27:57;98269.47;;;7.32;72.45
59531;BME280;45349;48.692;8.186;2023-03-18T05:30:42;98271.41;;;7.20;73.69
59531;BME280;45349;48.692;8.186;2023-03-18T05:33:12;98269.88;;;7.18;74.03
59531;BME280;45349;48.692;8.186;2023-03-18T05:35:49;98269.09;;;7.17;74.08
59531;BME280;45349;48.692;8.186;2023-03-18T05:38:19;98272.50;;;7.08;74.86
59531;BME280;45349;48.692;8.186;2023-03-18T05:40:47;98270.44;;;7.12;75.28
59531;BME280;45349;48.692;8.186;2023-03-18T05:43:27;98280.16;;;7.00;76.36
59531;BME280;45349;48.692;8.186;2023-03-18T05:45:56;98280.69;;;6.93;76.92
59531;BME280;45349;48.692;8.186;2023-03-18T05:48:35;98287.38;;;6.86;77.39
59531;BME280;45349;48.692;8.186;2023-03-18T05:51:04;98288.34;;;6.75;76.56
59531;BME280;45349;48.692;8.186;2023-03-18T05:53:34;98286.69;;;6.74;75.62
59531;BME280;45349;48.692;8.186;2023-03-18T05:56:09;98286.44;;;6.77;76.76
59531;BME280;45349;48.692;8.186;2023-03-18T05:58:38;98286.81;;;6.73;76.18
59531;BME280;45349;48.692;8.186;2023-03-18T06:01:34;98286.31;;;6.89;76.10
59531;BME280;45349;48.692;8.186;2023-03-18T06:04:02;98289.69;;;6.89;78.38
59531;BME280;45349;48.692;8.186;2023-03-18T06:06:30;98287.38;;;6.96;76.70
59531;BME280;45349;48.692;8.186;2023-03-18T06:08:57;98287.94;;;7.00;76.16
59531;BME280;45349;48.692;8.186;2023-03-18T06:11:25;98284.50;;;6.99;75.86
59531;BME280;45349;48.692;8.186;2023-03-18T06:13:54;98281.53;;;7.04;76.78
59531;BME280;45349;48.692;8.186;2023-03-18T06:16:21;98283.84;;;7.07;77.26
59531;BME280;45349;48.692;8.186;2023-03-18T06:18:52;98294.34;;;7.05;77.56
59531;BME280;45349;48.692;8.186;2023-03-18T06:21:19;98297.06;;;7.14;76.33
59531;BME280;45349;48.692;8.186;2023-03-18T06:23:46;98296.66;;;7.08;77.95
59531;BME280;45349;48.692;8.186;2023-03-18T06:26:14;98291.22;;;7.02;78.00
59531;BME280;45349;48.692;8.186;2023-03-18T06:28:46;98292.44;;;6.98;77.27
59531;BME280;45349;48.692;8.186;2023-03-18T06:31:16;98297.09;;;7.04;76.44
59531;BME280;45349;48.692;8.186;2023-03-18T06:33:43;98288.63;;;7.02;76.57
59531;BME280;45349;48.692;8.186;2023-03-18T06:36:13;98298.88;;;7.13;77.15
59531;BME280;45349;48.692;8.186;2023-03-18T06:38:44;98301.47;;;7.13;77.70
59531;BME280;45349;48.692;8.186;2023-03-18T06:41:12;98299.13;;;7.10;78.72
59531;BME280;45349;48.692;8.186;2023-03-18T06:43:48;98298.47;;;7.08;77.94
59531;BME280;45349;48.692;8.186;2023-03-18T06:46:18;98308.56;;;7.11;76.63
59531;BME280;45349;48.692;8.186;2023-03-18T06:48:44;98305.13;;;7.11;76.87
59531;BME280;45349;48.692;8.186;2023-03-18T06:51:15;98304.88;;;7.14;77.79
59531;BME280;45349;48.692;8.186;2023-03-18T06:53:42;98306.63;;;7.23;76.34
59531;BME280;45349;48.692;8.186;2023-03-18T06:56:09;98307.31;;;7.25;76.47
59531;BME280;45349;48.692;8.186;2023-03-18T06:58:51;98307.59;;;7.32;77.16
59531;BME280;45349;48.692;8.186;2023-03-18T07:01:19;98309.25;;;7.33;77.95
59531;BME280;45349;48.692;8.186;2023-03-18T07:03:47;98305.53;;;7.35;78.18
59531;BME280;45349;48.692;8.186;2023-03-18T07:06:14;98310.03;;;7.43;78.43
59531;BME280;45349;48.692;8.186;2023-03-18T07:08:42;98305.66;;;7.53;78.30
59531;BME280;45349;48.692;8.186;2023-03-18T07:11:09;98306.84;;;7.69;77.99
59531;BME280;45349;48.692;8.186;2023-03-18T07:13:39;98316.00;;;7.83;77.06
59531;BME280;45349;48.692;8.186;2023-03-18T07:16:13;98323.59;;;8.04;75.04
59531;BME280;45349;48.692;8.186;2023-03-18T07:18:42;98325.47;;;8.12;76.54
59531;BME280;45349;48.692;8.186;2023-03-18T07:21:10;98325.06;;;8.17;78.57
59531;BME280;45349;48.692;8.186;2023-03-18T07:23:38;98329.53;;;8.24;77.41
59531;BME280;45349;48.692;8.186;2023-03-18T07:26:05;98337.53;;;8.41;78.10
59531;BME280;45349;48.692;8.186;2023-03-18T07:28:33;98341.66;;;8.44;79.39
59531;BME280;45349;48.692;8.186;2023-03-18T07:31:00;98340.41;;;8.48;77.87
59531;BME280;45349;48.692;8.186;2023-03-18T07:33:26;98347.50;;;8.55;76.92
59531;BME280;45349;48.692;8.186;2023-03-18T07:35:54;98345.75;;;8.74;74.18
59531;BME280;45349;48.692;8.186;2023-03-18T07:38:21;98343.25;;;8.82;74.46
59531;BME280;45349;48.692;8.186;2023-03-18T07:40:48;98347.13;;;9.14;65.42
59531;BME280;45349;48.692;8.186;2023-03-18T07:43:15;98346.91;;;9.26;68.07
59531;BME280;45349;48.692;8.186;2023-03-18T07:45:43;98349.56;;;9.34;70.08
59531;BME280;45349;48.692;8.186;2023-03-18T07:48:09;98341.91;;;9.51;70.86
59531;BME280;45349;48.692;8.186;2023-03-18T07:50:36;98338.88;;;9.64;69.64
59531;BME280;45349;48.692;8.186;2023-03-18T07:53:05;98339.63;;;9.74;71.85
59531;BME280;45349;48.692;8.186;2023-03-18T07:55:31;98337.06;;;9.82;72.22
59531;BME280;45349;48.692;8.186;2023-03-18T07:57:58;98339.72;;;9.90;71.17
59531;BME280;45349;48.692;8.186;2023-03-18T08:00:25;98342.69;;;9.96;69.76
59531;BME280;45349;48.692;8.186;2023-03-18T08:02:52;98337.03;;;10.00;69.60
59531;BME280;45349;48.692;8.186;2023-03-18T08:05:18;98337.38;;;10.06;66.80
59531;BME280;45349;48.692;8.186;2023-03-18T08:07:46;98343.09;;;10.09;66.55
59531;BME280;45349;48.692;8.186;2023-03-18T08:10:15;98349.28;;;10.08;69.06
59531;BME280;45349;48.692;8.186;2023-03-18T08:12:41;98345.88;;;10.16;68.08
59531;BME280;45349;48.692;8.186;2023-03-18T08:15:09;98356.22;;;10.26;65.30
59531;BME280;45349;48.692;8.186;2023-03-18T08:17:36;98360.19;;;10.38;65.99
59531;BME280;45349;48.692;8.186;2023-03-18T08:20:03;98356.69;;;10.47;66.48
59531;BME280;45349;48.692;8.186;2023-03-18T08:22:30;98352.75;;;10.43;67.34
59531;BME280;45349;48.692;8.186;2023-03-18T08:24:56;98355.41;;;10.52;65.06
59531;BME280;45349;48.692;8.186;2023-03-18T08:27:24;98355.56;;;10.58;68.81
59531;BME280;45349;48.692;8.186;2023-03-18T08:29:51;98363.28;;;10.76;65.95
59531;BME280;45349;48.692;8.186;2023-03-18T08:32:17;98363.69;;;10.98;63.57
59531;BME280;45349;48.692;8.186;2023-03-18T08:34:44;98371.56;;;11.23;62.24
59531;BME280;45349;48.692;8.186;2023-03-18T08:37:11;98358.69;;;11.55;54.96
59531;BME280;45349;48.692;8.186;2023-03-18T08:39:38;98358.66;;;11.88;50.95
59531;BME280;45349;48.692;8.186;2023-03-18T08:42:06;98361.88;;;12.23;49.10
59531;BME280;45349;48.692;8.186;2023-03-18T08:44:34;98359.19;;;12.48;49.41
59531;BME280;45349;48.692;8.186;2023-03-18T08:47:00;98356.47;;;12.73;46.58
59531;BME280;45349;48.692;8.186;2023-03-18T08:49:27;98355.88;;;12.85;46.12
59531;BME280;45349;48.692;8.186;2023-03-18T08:51:53;98349.06;;;13.08;46.05
59531;BME280;45349;48.692;8.186;2023-03-18T08:54:20;98353.94;;;13.34;44.89
59531;BME280;45349;48.692;8.186;2023-03-18T08:56:47;98358.50;;;13.64;43.25
59531;BME280;45349;48.692;8.186;2023-03-18T08:59:14;98351.41;;;13.87;43.13
59531;BME280;45349;48.692;8.186;2023-03-18T09:01:43;98348.06;;;14.09;42.60
59531;BME280;45349;48.692;8.186;2023-03-18T09:04:10;98352.50;;;14.08;41.84
59531;BME280;45349;48.692;8.186;2023-03-18T09:06:37;98346.81;;;14.20;42.11
59531;BME280;45349;48.692;8.186;2023-03-18T09:09:04;98348.19;;;14.15;41.58
59531;BME280;45349;48.692;8.186;2023-03-18T09:11:30;98337.84;;;14.29;40.41
59531;BME280;45349;48.692;8.186;2023-03-18T09:13:58;98345.34;;;14.47;41.14
59531;BME280;45349;48.692;8.186;2023-03-18T09:16:24;98357.19;;;14.58;40.62
59531;BME280;45349;48.692;8.186;2023-03-18T09:18:53;98354.66;;;14.80;39.85
59531;BME280;45349;48.692;8.186;2023-03-18T09:21:19;98348.88;;;14.69;40.86
59531;BME280;45349;48.692;8.186;2023-03-18T09:23:46;98347.59;;;14.80;40.39
59531;BME280;45349;48.692;8.186;2023-03-18T09:26:14;98342.78;;;14.84;39.66
59531;BME280;45349;48.692;8.186;2023-03-18T09:28:40;98344.16;;;14.65;41.60
59531;BME280;45349;48.692;8.186;2023-03-18T09:31:07;98336.94;;;14.37;41.72
59531;BME280;45349;48.692;8.186;2023-03-18T09:33:33;98339.19;;;14.40;41.61
59531;BME280;45349;48.692;8.186;2023-03-18T09:36:02;98344.88;;;14.43;43.35
59531;BME280;45349;48.692;8.186;2023-03-18T09:38:29;98336.84;;;14.45;41.59
59531;BME280;45349;48.692;8.186;2023-03-18T09:41:02;98337.63;;;14.60;39.76
59531;BME280;45349;48.692;8.186;2023-03-18T09:43:55;98335.91;;;14.68;40.03
59531;BME280;45349;48.692;8.186;2023-03-18T09:46:31;98333.81;;;14.78;39.93
59531;BME280;45349;48.692;8.186;2023-03-18T09:49:22;98332.47;;;15.04;39.78
59531;BME280;45349;48.692;8.186;2023-03-18T09:52:03;98325.56;;;15.25;39.89
59531;BME280;45349;48.692;8.186;2023-03-18T09:54:35;98325.28;;;15.34;39.28
59531;BME280;45349;48.692;8.186;2023-03-18T09:57:12;98334.72;;;15.79;37.85
59531;BME280;45349;48.692;8.186;2023-03-18T09:59:44;98325.78;;;15.73;39.41
59531;BME280;45349;48.692;8.186;2023-03-18T10:02:18;98334.31;;;15.82;37.69
59531;BME280;45349;48.692;8.186;2023-03-18T10:04:49;98328.88;;;15.84;37.04
59531;BME280;45349;48.692;8.186;2023-03-18T10:07:21;98325.16;;;15.71;38.18
59531;BME280;45349;48.692;8.186;2023-03-18T10:09:53;98332.94;;;15.58;39.19
59531;BME280;45349;48.692;8.186;2023-03-18T10:12:28;98337.69;;;15.69;38.07
59531;BME280;45349;48.692;8.186;2023-03-18T10:15:03;98334.81;;;15.64;37.97
59531;BME280;45349;48.692;8.186;2023-03-18T10:17:37;98329.19;;;15.45;38.36
59531;BME280;45349;48.692;8.186;2023-03-18T10:20:14;98327.63;;;15.51;39.92
59531;BME280;45349;48.692;8.186;2023-03-18T10:22:59;98322.53;;;15.71;38.70
59531;BME280;45349;48.692;8.186;2023-03-18T10:25:32;98335.16;;;15.83;38.49
59531;BME280;45349;48.692;8.186;2023-03-18T10:28:30;98337.31;;;15.72;40.41
59531;BME280;45349;48.692;8.186;2023-03-18T10:31:07;98335.75;;;15.56;38.85
59531;BME280;45349;48.692;8.186;2023-03-18T10:33:42;98333.59;;;15.38;40.33
59531;BME280;45349;48.692;8.186;2023-03-18T10:36:11;98330.22;;;15.23;40.55
59531;BME280;45349;48.692;8.186;2023-03-18T10:38:45;98337.72;;;15.26;40.43
59531;BME280;45349;48.692;8.186;2023-03-18T10:41:16;98336.94;;;15.25;40.30
59531;BME280;45349;48.692;8.186;2023-03-18T10:43:44;98335.53;;;15.08;40.84
59531;BME280;45349;48.692;8.186;2023-03-18T10:46:14;98341.78;;;14.85;42.58
59531;BME280;45349;48.692;8.186;2023-03-18T10:48:45;98332.69;;;14.87;41.16
59531;BME280;45349;48.692;8.186;2023-03-18T10:51:16;98330.47;;;14.69;42.30
59531;BME280;45349;48.692;8.186;2023-03-18T10:53:50;98321.09;;;14.45;41.88
59531;BME280;45349;48.692;8.186;2023-03-18T10:56:19;98321.31;;;14.65;41.03
59531;BME280;45349;48.692;8.186;2023-03-18T10:58:46;98319.13;;;14.69;41.78
59531;BME280;45349;48.692;8.186;2023-03-18T11:01:15;98322.75;;;14.83;41.57
59531;BME280;45349;48.692;8.186;2023-03-18T11:03:44;98319.81;;;14.71;41.53
59531;BME280;45349;48.692;8.186;2023-03-18T11:06:15;98323.44;;;14.91;41.39
59531;BME280;45349;48.692;8.186;2023-03-18T11:08:47;98313.44;;;15.02;40.35
59531;BME280;45349;48.692;8.186;2023-03-18T11:11:19;98316.69;;;15.04;40.56
59531;BME280;45349;48.692;8.186;2023-03-18T11:13:48;98315.50;;;15.28;40.50
59531;BME280;45349;48.692;8.186;2023-03-18T11:16:24;98327.19;;;15.47;40.76
59531;BME280;45349;48.692;8.186;2023-03-18T11:18:54;98325.81;;;15.80;39.36
59531;BME280;45349;48.692;8.186;2023-03-18T11:21:21;98330.09;;;15.59;39.05
59531;BME280;45349;48.692;8.186;2023-03-18T11:23:52;98334.88;;;15.99;38.81
59531;BME280;45349;48.692;8.186;2023-03-18T11:26:48;98329.72;;;16.19;37.87
59531;BME280;45349;48.692;8.186;2023-03-18T11:29:21;98329.69;;;16.13;38.54
59531;BME280;45349;48.692;8.186;2023-03-18T11:31:54;98335.84;;;16.27;38.77
59531;BME280;45349;48.692;8.186;2023-03-18T11:34:23;98323.88;;;16.24;38.09
59531;BME280;45349;48.692;8.186;2023-03-18T11:36:56;98328.28;;;16.59;38.72
59531;BME280;45349;48.692;8.186;2023-03-18T11:39:28;98334.97;;;16.61;38.57
59531;BME280;45349;48.692;8.186;2023-03-18T11:41:57;98318.91;;;16.49;38.15
59531;BME280;45349;48.692;8.186;2023-03-18T11:44:27;98322.38;;;16.57;37.29
59531;BME280;45349;48.692;8.186;2023-03-18T11:47:00;98313.94;;;16.81;36.94
59531;BME280;45349;48.692;8.186;2023-03-18T11:49:28;98311.38;;;17.02;36.52
59531;BME280;45349;48.692;8.186;2023-03-18T11:52:05;98301.91;;;17.34;39.46
59531;BME280;45349;48.692;8.186;2023-03-18T11:57:44;98304.31;;;17.49;36.18
59531;BME280;45349;48.692;8.186;2023-03-18T12:00:27;98295.59;;;17.55;35.69
59531;BME280;45349;48.692;8.186;2023-03-18T12:06:04;98296.56;;;17.75;36.11
59531;BME280;45349;48.692;8.186;2023-03-18T12:08:44;98304.09;;;17.31;37.54
59531;BME280;45349;48.692;8.186;2023-03-18T12:11:18;98293.97;;;17.54;36.99
59531;BME280;45349;48.692;8.186;2023-03-18T12:13:53;98293.13;;;17.88;36.81
59531;BME280;45349;48.692;8.186;2023-03-18T12:16:33;98286.78;;;18.02;35.85
59531;BME280;45349;48.692;8.186;2023-03-18T12:19:16;98285.97;;;18.08;35.63
59531;BME280;45349;48.692;8.186;2023-03-18T12:22:20;98281.28;;;18.10;34.63
59531;BME280;45349;48.692;8.186;2023-03-18T12:24:58;98280.53;;;17.90;35.01
59531;BME280;45349;48.692;8.186;2023-03-18T12:27:38;98270.34;;;17.93;33.98
59531;BME280;45349;48.692;8.186;2023-03-18T12:30:16;98274.44;;;17.82;36.25
59531;BME280;45349;48.692;8.186;2023-03-18T12:32:57;98278.91;;;17.68;35.59
59531;BME280;45349;48.692;8.186;2023-03-18T12:35:37;98278.56;;;17.45;35.73
59531;BME280;45349;48.692;8.186;2023-03-18T12:38:24;98279.53;;;17.64;35.87
59531;BME280;45349;48.692;8.186;2023-03-18T12:41:02;98273.84;;;17.80;36.50
59531;BME280;45349;48.692;8.186;2023-03-18T12:43:50;98286.00;;;17.88;35.98
59531;BME280;45349;48.692;8.186;2023-03-18T12:46:25;98276.88;;;17.77;36.17
59531;BME280;45349;48.692;8.186;2023-03-18T12:48:59;98287.16;;;18.12;35.71
59531;BME280;45349;48.692;8.186;2023-03-18T12:51:31;98280.88;;;18.13;36.48
59531;BME280;45349;48.692;8.186;2023-03-18T12:54:06;98278.06;;;17.95;35.12
59531;BME280;45349;48.692;8.186;2023-03-18T12:56:35;98278.28;;;18.00;35.06
59531;BME280;45349;48.692;8.186;2023-03-18T12:59:12;98272.44;;;17.71;35.50
59531;BME280;45349;48.692;8.186;2023-03-18T13:01:45;98264.91;;;17.75;35.85
59531;BME280;45349;48.692;8.186;2023-03-18T13:04:17;98276.88;;;17.91;35.73
59531;BME280;45349;48.692;8.186;2023-03-18T13:06:50;98273.84;;;17.67;35.62
59531;BME280;45349;48.692;8.186;2023-03-18T13:09:24;98279.75;;;17.42;36.29
59531;BME280;45349;48.692;8.186;2023-03-18T13:12:00;98276.50;;;17.40;37.25
59531;BME280;45349;48.692;8.186;2023-03-18T13:14:40;98261.88;;;17.58;37.08
59531;BME280;45349;48.692;8.186;2023-03-18T13:17:10;98269.38;;;17.74;35.80
59531;BME280;45349;48.692;8.186;2023-03-18T13:19:39;98261.69;;;17.52;35.40
59531;BME280;45349;48.692;8.186;2023-03-18T13:22:18;98258.03;;;17.67;36.32
59531;BME280;45349;48.692;8.186;2023-03-18T13:24:55;98260.41;;;17.89;36.86
59531;BME280;45349;48.692;8.186;2023-03-18T13:27:42;98267.28;;;18.03;37.23
59531;BME280;45349;48.692;8.186;2023-03-18T13:30:23;98256.75;;;17.90;35.42
59531;BME280;45349;48.692;8.186;2023-03-18T13:33:17;98263.03;;;18.02;35.10